sensor_id;sensor_type;location;lat;lon;timestamp;P1;durP1;ratioP1;P2;durP2;ratioP2
56943;SDS011;42848;42.524;12.052;2023-04-25T00:01:24;4.97;;;1.92;;
56943;SDS011;42848;42.524;12.052;2023-04-25T00:03:50;5.65;;;2.67;;
56943;SDS011;42848;42.524;12.052;2023-04-25T00:06:16;6.90;;;2.67;;
56943;SDS011;42848;42.524;12.052;2023-04-25T00:08:42;7.72;;;2.72;;
56943;SDS011;42848;42.524;12.052;2023-04-25T00:11:09;7.15;;;3.00;;
56943;SDS011;42848;42.524;12.052;2023-04-25T00:13:35;7.38;;;2.92;;
56943;SDS011;42848;42.524;12.052;2023-04-25T00:16:00;6.55;;;3.10;;
56943;SDS011;42848;42.524;12.052;2023-04-25T00:18:27;7.15;;;3.15;;
56943;SDS011;42848;42.524;12.052;2023-04-25T00:20:58;11.23;;;3.25;;
56943;SDS011;42848;42.524;12.052;2023-04-25T00:23:24;6.28;;;2.95;;
56943;SDS011;42848;42.524;12.052;2023-04-25T00:25:50;7.80;;;3.17;;
56943;SDS011;42848;42.524;12.052;2023-04-25T00:28:16;8.50;;;3.10;;
56943;SDS011;42848;42.524;12.052;2023-04-25T00:30:42;9.55;;;3.05;;
56943;SDS011;42848;42.524;12.052;2023-04-25T00:33:08;8.15;;;3.60;;
56943;SDS011;42848;42.524;12.052;2023-04-25T00:35:34;8.65;;;3.70;;
56943;SDS011;42848;42.524;12.052;2023-04-25T00:38:00;11.55;;;3.70;;
56943;SDS011;42848;42.524;12.052;2023-04-25T00:40:27;13.30;;;3.95;;
56943;SDS011;42848;42.524;12.052;2023-04-25T00:42:53;8.38;;;3.58;;
56943;SDS011;42848;42.524;12.052;2023-04-25T00:45:19;9.13;;;3.60;;
56943;SDS011;42848;42.524;12.052;2023-04-25T00:47:45;10.65;;;3.70;;
56943;SDS011;42848;42.524;12.052;2023-04-25T00:50:12;9.90;;;3.63;;
56943;SDS011;42848;42.524;12.052;2023-04-25T00:52:41;8.10;;;3.45;;
56943;SDS011;42848;42.524;12.052;2023-04-25T00:55:10;7.57;;;3.47;;
56943;SDS011;42848;42.524;12.052;2023-04-25T00:57:37;10.57;;;3.92;;
56943;SDS011;42848;42.524;12.052;2023-04-25T01:00:04;8.73;;;4.18;;
56943;SDS011;42848;42.524;12.052;2023-04-25T01:02:32;9.23;;;4.22;;
56943;SDS011;42848;42.524;12.052;2023-04-25T01:04:58;8.25;;;4.25;;
56943;SDS011;42848;42.524;12.052;2023-04-25T01:07:24;14.52;;;4.93;;
56943;SDS011;42848;42.524;12.052;2023-04-25T01:09:51;10.88;;;4.80;;
56943;SDS011;42848;42.524;12.052;2023-04-25T01:12:17;11.57;;;5.20;;
56943;SDS011;42848;42.524;12.052;2023-04-25T01:14:43;12.00;;;4.93;;
56943;SDS011;42848;42.524;12.052;2023-04-25T01:17:10;12.48;;;4.82;;
56943;SDS011;42848;42.524;12.052;2023-04-25T01:19:36;10.07;;;4.57;;
56943;SDS011;42848;42.524;12.052;2023-04-25T01:22:02;8.57;;;4.50;;
56943;SDS011;42848;42.524;12.052;2023-04-25T01:24:29;10.05;;;4.93;;
56943;SDS011;42848;42.524;12.052;2023-04-25T01:26:57;8.95;;;4.38;;
56943;SDS011;42848;42.524;12.052;2023-04-25T01:29:24;14.18;;;4.50;;
56943;SDS011;42848;42.524;12.052;2023-04-25T01:31:51;9.13;;;4.70;;
56943;SDS011;42848;42.524;12.052;2023-04-25T01:34:18;8.20;;;4.10;;
56943;SDS011;42848;42.524;12.052;2023-04-25T01:36:44;12.52;;;4.57;;
56943;SDS011;42848;42.524;12.052;2023-04-25T01:39:10;8.35;;;4.00;;
56943;SDS011;42848;42.524;12.052;2023-04-25T01:41:36;19.75;;;4.40;;
56943;SDS011;42848;42.524;12.052;2023-04-25T01:44:02;19.15;;;4.47;;
56943;SDS011;42848;42.524;12.052;2023-04-25T01:46:28;13.60;;;4.40;;
56943;SDS011;42848;42.524;12.052;2023-04-25T01:48:54;16.13;;;4.57;;
56943;SDS011;42848;42.524;12.052;2023-04-25T01:51:20;7.93;;;4.38;;
56943;SDS011;42848;42.524;12.052;2023-04-25T01:53:46;8.70;;;3.83;;
56943;SDS011;42848;42.524;12.052;2023-04-25T01:56:12;5.82;;;3.80;;
56943;SDS011;42848;42.524;12.052;2023-04-25T01:58:37;8.73;;;4.15;;
56943;SDS011;42848;42.524;12.052;2023-04-25T02:01:03;7.07;;;3.75;;
56943;SDS011;42848;42.524;12.052;2023-04-25T02:03:30;6.18;;;3.67;;
56943;SDS011;42848;42.524;12.052;2023-04-25T02:05:57;6.47;;;3.65;;
56943;SDS011;42848;42.524;12.052;2023-04-25T02:08:22;6.63;;;3.47;;
56943;SDS011;42848;42.524;12.052;2023-04-25T02:10:48;5.82;;;3.60;;
56943;SDS011;42848;42.524;12.052;2023-04-25T02:13:13;6.88;;;3.58;;
56943;SDS011;42848;42.524;12.052;2023-04-25T02:15:39;6.93;;;3.80;;
56943;SDS011;42848;42.524;12.052;2023-04-25T02:18:06;6.93;;;3.40;;
56943;SDS011;42848;42.524;12.052;2023-04-25T02:20:32;7.25;;;3.60;;
56943;SDS011;42848;42.524;12.052;2023-04-25T02:22:57;5.03;;;3.22;;
56943;SDS011;42848;42.524;12.052;2023-04-25T02:25:23;5.38;;;3.00;;
56943;SDS011;42848;42.524;12.052;2023-04-25T02:27:49;6.00;;;2.67;;
56943;SDS011;42848;42.524;12.052;2023-04-25T02:30:16;6.28;;;3.20;;
56943;SDS011;42848;42.524;12.052;2023-04-25T02:32:42;6.15;;;3.03;;
56943;SDS011;42848;42.524;12.052;2023-04-25T02:35:08;6.32;;;3.20;;
56943;SDS011;42848;42.524;12.052;2023-04-25T02:37:35;5.97;;;3.05;;
56943;SDS011;42848;42.524;12.052;2023-04-25T02:40:02;5.70;;;3.28;;
56943;SDS011;42848;42.524;12.052;2023-04-25T02:42:28;9.48;;;3.78;;
56943;SDS011;42848;42.524;12.052;2023-04-25T02:44:54;8.23;;;3.78;;
56943;SDS011;42848;42.524;12.052;2023-04-25T02:47:20;6.55;;;2.50;;
56943;SDS011;42848;42.524;12.052;2023-04-25T02:49:46;4.85;;;2.80;;
56943;SDS011;42848;42.524;12.052;2023-04-25T02:52:11;5.43;;;2.80;;
56943;SDS011;42848;42.524;12.052;2023-04-25T02:54:38;5.80;;;2.88;;
56943;SDS011;42848;42.524;12.052;2023-04-25T02:57:05;6.25;;;2.97;;
56943;SDS011;42848;42.524;12.052;2023-04-25T02:59:31;5.10;;;2.78;;
56943;SDS011;42848;42.524;12.052;2023-04-25T03:01:57;5.43;;;2.95;;
56943;SDS011;42848;42.524;12.052;2023-04-25T03:04:22;5.07;;;3.03;;
56943;SDS011;42848;42.524;12.052;2023-04-25T03:06:49;5.60;;;3.00;;
56943;SDS011;42848;42.524;12.052;2023-04-25T03:09:15;6.80;;;3.17;;
56943;SDS011;42848;42.524;12.052;2023-04-25T03:11:41;5.90;;;3.40;;
56943;SDS011;42848;42.524;12.052;2023-04-25T03:14:07;6.13;;;3.40;;
56943;SDS011;42848;42.524;12.052;2023-04-25T03:16:33;5.47;;;2.92;;
56943;SDS011;42848;42.524;12.052;2023-04-25T03:18:59;5.63;;;3.00;;
56943;SDS011;42848;42.524;12.052;2023-04-25T03:21:24;5.78;;;2.75;;
56943;SDS011;42848;42.524;12.052;2023-04-25T03:23:51;7.40;;;3.30;;
56943;SDS011;42848;42.524;12.052;2023-04-25T03:26:17;5.63;;;2.90;;
56943;SDS011;42848;42.524;12.052;2023-04-25T03:28:43;5.60;;;3.25;;
56943;SDS011;42848;42.524;12.052;2023-04-25T03:31:09;6.97;;;3.47;;
56943;SDS011;42848;42.524;12.052;2023-04-25T03:33:34;6.35;;;3.63;;
56943;SDS011;42848;42.524;12.052;2023-04-25T03:36:00;5.53;;;3.33;;
56943;SDS011;42848;42.524;12.052;2023-04-25T03:38:26;6.53;;;3.72;;
56943;SDS011;42848;42.524;12.052;2023-04-25T03:40:51;5.30;;;3.10;;
56943;SDS011;42848;42.524;12.052;2023-04-25T03:43:17;5.50;;;3.25;;
56943;SDS011;42848;42.524;12.052;2023-04-25T03:45:43;5.72;;;3.08;;
56943;SDS011;42848;42.524;12.052;2023-04-25T03:48:08;5.30;;;3.10;;
56943;SDS011;42848;42.524;12.052;2023-04-25T03:50:34;4.97;;;3.00;;
56943;SDS011;42848;42.524;12.052;2023-04-25T03:53:00;5.40;;;2.95;;
56943;SDS011;42848;42.524;12.052;2023-04-25T03:55:25;5.20;;;3.00;;
56943;SDS011;42848;42.524;12.052;2023-04-25T03:57:51;10.70;;;3.08;;
56943;SDS011;42848;42.524;12.052;2023-04-25T04:00:17;6.65;;;3.30;;
56943;SDS011;42848;42.524;12.052;2023-04-25T04:02:42;17.55;;;4.00;;
56943;SDS011;42848;42.524;12.052;2023-04-25T04:05:08;8.57;;;3.83;;
56943;SDS011;42848;42.524;12.052;2023-04-25T04:07:34;15.32;;;4.68;;
56943;SDS011;42848;42.524;12.052;2023-04-25T04:10:05;9.98;;;3.95;;
56943;SDS011;42848;42.524;12.052;2023-04-25T04:12:32;8.57;;;3.60;;
56943;SDS011;42848;42.524;12.052;2023-04-25T04:14:58;8.13;;;3.70;;
56943;SDS011;42848;42.524;12.052;2023-04-25T04:17:24;20.95;;;4.25;;
56943;SDS011;42848;42.524;12.052;2023-04-25T04:19:50;35.20;;;4.30;;
56943;SDS011;42848;42.524;12.052;2023-04-25T04:22:16;10.77;;;3.70;;
56943;SDS011;42848;42.524;12.052;2023-04-25T04:24:41;15.55;;;4.43;;
56943;SDS011;42848;42.524;12.052;2023-04-25T04:27:11;9.75;;;3.60;;
56943;SDS011;42848;42.524;12.052;2023-04-25T04:29:38;68.47;;;5.00;;
56943;SDS011;42848;42.524;12.052;2023-04-25T04:32:04;6.18;;;3.05;;
56943;SDS011;42848;42.524;12.052;2023-04-25T04:34:30;5.53;;;3.00;;
56943;SDS011;42848;42.524;12.052;2023-04-25T04:36:56;5.38;;;2.83;;
56943;SDS011;42848;42.524;12.052;2023-04-25T04:39:22;6.32;;;3.85;;
56943;SDS011;42848;42.524;12.052;2023-04-25T04:41:48;9.20;;;5.35;;
56943;SDS011;42848;42.524;12.052;2023-04-25T04:44:14;4.85;;;2.58;;
56943;SDS011;42848;42.524;12.052;2023-04-25T04:46:40;3.75;;;2.25;;
56943;SDS011;42848;42.524;12.052;2023-04-25T04:49:09;4.22;;;2.40;;
56943;SDS011;42848;42.524;12.052;2023-04-25T04:51:36;5.85;;;2.95;;
56943;SDS011;42848;42.524;12.052;2023-04-25T04:54:03;5.60;;;2.80;;
56943;SDS011;42848;42.524;12.052;2023-04-25T04:56:29;5.45;;;3.20;;
56943;SDS011;42848;42.524;12.052;2023-04-25T04:58:56;5.82;;;2.80;;
56943;SDS011;42848;42.524;12.052;2023-04-25T05:01:25;5.20;;;2.47;;
56943;SDS011;42848;42.524;12.052;2023-04-25T05:03:52;6.35;;;2.20;;
56943;SDS011;42848;42.524;12.052;2023-04-25T05:06:18;4.70;;;2.20;;
56943;SDS011;42848;42.524;12.052;2023-04-25T05:08:44;3.97;;;2.10;;
56943;SDS011;42848;42.524;12.052;2023-04-25T05:11:10;5.30;;;2.10;;
56943;SDS011;42848;42.524;12.052;2023-04-25T05:13:36;5.45;;;2.00;;
56943;SDS011;42848;42.524;12.052;2023-04-25T05:16:02;5.72;;;2.22;;
56943;SDS011;42848;42.524;12.052;2023-04-25T05:18:28;6.57;;;2.20;;
56943;SDS011;42848;42.524;12.052;2023-04-25T05:20:54;5.50;;;2.15;;
56943;SDS011;42848;42.524;12.052;2023-04-25T05:23:20;6.10;;;2.58;;
56943;SDS011;42848;42.524;12.052;2023-04-25T05:25:46;6.63;;;2.67;;
56943;SDS011;42848;42.524;12.052;2023-04-25T05:28:12;7.45;;;2.72;;
56943;SDS011;42848;42.524;12.052;2023-04-25T05:30:38;6.78;;;2.90;;
56943;SDS011;42848;42.524;12.052;2023-04-25T05:33:04;6.85;;;2.50;;
56943;SDS011;42848;42.524;12.052;2023-04-25T05:35:30;7.28;;;2.50;;
56943;SDS011;42848;42.524;12.052;2023-04-25T05:37:56;8.50;;;2.80;;
56943;SDS011;42848;42.524;12.052;2023-04-25T05:40:21;8.75;;;2.90;;
56943;SDS011;42848;42.524;12.052;2023-04-25T05:42:47;6.82;;;3.00;;
56943;SDS011;42848;42.524;12.052;2023-04-25T05:45:13;6.90;;;3.03;;
56943;SDS011;42848;42.524;12.052;2023-04-25T05:47:38;5.35;;;2.80;;
56943;SDS011;42848;42.524;12.052;2023-04-25T05:50:04;7.55;;;2.83;;
56943;SDS011;42848;42.524;12.052;2023-04-25T05:52:31;7.22;;;3.00;;
56943;SDS011;42848;42.524;12.052;2023-04-25T05:54:56;9.65;;;3.00;;
56943;SDS011;42848;42.524;12.052;2023-04-25T05:57:23;11.30;;;2.90;;
56943;SDS011;42848;42.524;12.052;2023-04-25T05:59:50;8.55;;;3.05;;
56943;SDS011;42848;42.524;12.052;2023-04-25T06:02:17;7.10;;;3.10;;
56943;SDS011;42848;42.524;12.052;2023-04-25T06:04:44;7.90;;;3.70;;
56943;SDS011;42848;42.524;12.052;2023-04-25T06:07:09;6.32;;;3.20;;
56943;SDS011;42848;42.524;12.052;2023-04-25T06:09:35;7.55;;;3.60;;
56943;SDS011;42848;42.524;12.052;2023-04-25T06:12:01;7.63;;;3.60;;
56943;SDS011;42848;42.524;12.052;2023-04-25T06:14:28;8.93;;;3.60;;
56943;SDS011;42848;42.524;12.052;2023-04-25T06:16:53;8.65;;;3.80;;
56943;SDS011;42848;42.524;12.052;2023-04-25T06:19:19;7.22;;;3.58;;
56943;SDS011;42848;42.524;12.052;2023-04-25T06:21:45;7.13;;;3.67;;
56943;SDS011;42848;42.524;12.052;2023-04-25T06:24:11;6.90;;;3.67;;
56943;SDS011;42848;42.524;12.052;2023-04-25T06:26:36;7.47;;;3.28;;
56943;SDS011;42848;42.524;12.052;2023-04-25T06:29:02;7.80;;;3.70;;
56943;SDS011;42848;42.524;12.052;2023-04-25T06:31:28;9.05;;;3.72;;
56943;SDS011;42848;42.524;12.052;2023-04-25T06:34:00;7.68;;;3.60;;
56943;SDS011;42848;42.524;12.052;2023-04-25T06:36:26;9.90;;;4.43;;
56943;SDS011;42848;42.524;12.052;2023-04-25T06:38:52;8.80;;;3.50;;
56943;SDS011;42848;42.524;12.052;2023-04-25T06:41:19;11.52;;;4.20;;
56943;SDS011;42848;42.524;12.052;2023-04-25T06:43:45;10.20;;;4.30;;
56943;SDS011;42848;42.524;12.052;2023-04-25T06:46:11;10.55;;;3.88;;
56943;SDS011;42848;42.524;12.052;2023-04-25T06:48:37;11.23;;;3.97;;
56943;SDS011;42848;42.524;12.052;2023-04-25T06:51:03;9.65;;;3.72;;
56943;SDS011;42848;42.524;12.052;2023-04-25T06:53:28;9.27;;;3.60;;
56943;SDS011;42848;42.524;12.052;2023-04-25T06:55:54;7.03;;;3.40;;
56943;SDS011;42848;42.524;12.052;2023-04-25T06:58:20;9.77;;;3.55;;
56943;SDS011;42848;42.524;12.052;2023-04-25T07:00:46;8.38;;;3.50;;
56943;SDS011;42848;42.524;12.052;2023-04-25T07:03:11;7.68;;;3.50;;
56943;SDS011;42848;42.524;12.052;2023-04-25T07:05:37;9.52;;;3.33;;
56943;SDS011;42848;42.524;12.052;2023-04-25T07:08:03;6.72;;;2.72;;
56943;SDS011;42848;42.524;12.052;2023-04-25T07:10:29;10.18;;;3.03;;
56943;SDS011;42848;42.524;12.052;2023-04-25T07:12:55;7.70;;;2.75;;
56943;SDS011;42848;42.524;12.052;2023-04-25T07:15:20;10.30;;;2.80;;
56943;SDS011;42848;42.524;12.052;2023-04-25T07:17:46;10.00;;;3.35;;
56943;SDS011;42848;42.524;12.052;2023-04-25T07:20:12;13.38;;;5.55;;
56943;SDS011;42848;42.524;12.052;2023-04-25T07:22:37;19.67;;;7.60;;
56943;SDS011;42848;42.524;12.052;2023-04-25T07:25:03;24.73;;;12.95;;
56943;SDS011;42848;42.524;12.052;2023-04-25T07:27:29;8.45;;;3.47;;
56943;SDS011;42848;42.524;12.052;2023-04-25T07:29:55;11.55;;;3.40;;
56943;SDS011;42848;42.524;12.052;2023-04-25T07:32:21;9.10;;;3.03;;
56943;SDS011;42848;42.524;12.052;2023-04-25T07:34:47;10.35;;;3.30;;
56943;SDS011;42848;42.524;12.052;2023-04-25T07:37:13;10.30;;;3.38;;
56943;SDS011;42848;42.524;12.052;2023-04-25T07:39:39;11.35;;;3.35;;
56943;SDS011;42848;42.524;12.052;2023-04-25T07:42:05;8.63;;;3.50;;
56943;SDS011;42848;42.524;12.052;2023-04-25T07:44:33;10.18;;;3.50;;
56943;SDS011;42848;42.524;12.052;2023-04-25T07:47:04;10.48;;;3.22;;
56943;SDS011;42848;42.524;12.052;2023-04-25T07:49:32;10.38;;;3.40;;
56943;SDS011;42848;42.524;12.052;2023-04-25T07:51:59;12.48;;;3.80;;
56943;SDS011;42848;42.524;12.052;2023-04-25T07:54:25;11.82;;;5.90;;
56943;SDS011;42848;42.524;12.052;2023-04-25T07:56:51;30.10;;;15.88;;
56943;SDS011;42848;42.524;12.052;2023-04-25T07:59:17;12.40;;;6.03;;
56943;SDS011;42848;42.524;12.052;2023-04-25T08:01:43;13.55;;;3.72;;
56943;SDS011;42848;42.524;12.052;2023-04-25T08:04:08;10.02;;;3.38;;
56943;SDS011;42848;42.524;12.052;2023-04-25T08:06:34;12.77;;;3.60;;
56943;SDS011;42848;42.524;12.052;2023-04-25T08:09:01;8.80;;;2.92;;
56943;SDS011;42848;42.524;12.052;2023-04-25T08:11:28;9.68;;;3.40;;
56943;SDS011;42848;42.524;12.052;2023-04-25T08:13:54;11.23;;;3.22;;
56943;SDS011;42848;42.524;12.052;2023-04-25T08:16:19;9.50;;;3.22;;
56943;SDS011;42848;42.524;12.052;2023-04-25T08:18:45;7.95;;;2.90;;
56943;SDS011;42848;42.524;12.052;2023-04-25T08:21:11;9.00;;;3.15;;
56943;SDS011;42848;42.524;12.052;2023-04-25T08:23:37;11.93;;;3.22;;
56943;SDS011;42848;42.524;12.052;2023-04-25T08:26:04;9.15;;;2.97;;
56943;SDS011;42848;42.524;12.052;2023-04-25T08:28:32;11.68;;;3.22;;
56943;SDS011;42848;42.524;12.052;2023-04-25T08:30:58;9.38;;;3.40;;
56943;SDS011;42848;42.524;12.052;2023-04-25T08:33:24;10.07;;;3.35;;
56943;SDS011;42848;42.524;12.052;2023-04-25T08:35:50;11.85;;;3.92;;
56943;SDS011;42848;42.524;12.052;2023-04-25T08:38:17;10.93;;;3.00;;
56943;SDS011;42848;42.524;12.052;2023-04-25T08:40:42;8.23;;;3.30;;
56943;SDS011;42848;42.524;12.052;2023-04-25T08:43:09;9.95;;;3.35;;
56943;SDS011;42848;42.524;12.052;2023-04-25T08:45:40;11.68;;;3.60;;
56943;SDS011;42848;42.524;12.052;2023-04-25T08:48:07;12.60;;;4.38;;
56943;SDS011;42848;42.524;12.052;2023-04-25T08:50:40;11.50;;;3.75;;
56943;SDS011;42848;42.524;12.052;2023-04-25T08:53:16;8.20;;;2.80;;
56943;SDS011;42848;42.524;12.052;2023-04-25T08:55:46;7.28;;;2.78;;
56943;SDS011;42848;42.524;12.052;2023-04-25T08:58:14;13.55;;;3.10;;
56943;SDS011;42848;42.524;12.052;2023-04-25T09:00:40;8.23;;;3.10;;
56943;SDS011;42848;42.524;12.052;2023-04-25T09:03:06;11.85;;;4.38;;
56943;SDS011;42848;42.524;12.052;2023-04-25T09:05:32;8.75;;;3.30;;
56943;SDS011;42848;42.524;12.052;2023-04-25T09:08:00;9.52;;;3.00;;
56943;SDS011;42848;42.524;12.052;2023-04-25T09:10:26;12.00;;;2.63;;
56943;SDS011;42848;42.524;12.052;2023-04-25T09:13:26;7.38;;;2.50;;
56943;SDS011;42848;42.524;12.052;2023-04-25T09:15:50;11.05;;;2.70;;
56943;SDS011;42848;42.524;12.052;2023-04-25T09:18:27;7.60;;;2.65;;
56943;SDS011;42848;42.524;12.052;2023-04-25T09:20:56;8.15;;;2.40;;
56943;SDS011;42848;42.524;12.052;2023-04-25T09:23:43;6.20;;;2.38;;
56943;SDS011;42848;42.524;12.052;2023-04-25T09:26:16;7.40;;;2.40;;
56943;SDS011;42848;42.524;12.052;2023-04-25T09:28:44;6.88;;;2.30;;
56943;SDS011;42848;42.524;12.052;2023-04-25T09:31:11;6.18;;;2.38;;
56943;SDS011;42848;42.524;12.052;2023-04-25T09:33:37;6.90;;;2.30;;
56943;SDS011;42848;42.524;12.052;2023-04-25T09:36:04;8.05;;;2.40;;
56943;SDS011;42848;42.524;12.052;2023-04-25T09:38:32;6.15;;;2.20;;
56943;SDS011;42848;42.524;12.052;2023-04-25T09:41:09;8.43;;;2.40;;
56943;SDS011;42848;42.524;12.052;2023-04-25T09:43:35;6.28;;;2.60;;
56943;SDS011;42848;42.524;12.052;2023-04-25T09:46:02;7.07;;;2.33;;
56943;SDS011;42848;42.524;12.052;2023-04-25T09:48:32;6.53;;;2.47;;
56943;SDS011;42848;42.524;12.052;2023-04-25T09:51:08;9.75;;;2.80;;
56943;SDS011;42848;42.524;12.052;2023-04-25T09:53:39;7.65;;;2.72;;
56943;SDS011;42848;42.524;12.052;2023-04-25T09:56:08;9.98;;;2.85;;
56943;SDS011;42848;42.524;12.052;2023-04-25T09:58:35;9.63;;;3.10;;
56943;SDS011;42848;42.524;12.052;2023-04-25T10:01:04;7.60;;;2.90;;
56943;SDS011;42848;42.524;12.052;2023-04-25T10:03:35;8.60;;;3.33;;
56943;SDS011;42848;42.524;12.052;2023-04-25T10:06:07;9.02;;;3.00;;
56943;SDS011;42848;42.524;12.052;2023-04-25T10:08:34;15.20;;;5.97;;
56943;SDS011;42848;42.524;12.052;2023-04-25T10:11:02;18.65;;;8.15;;
56943;SDS011;42848;42.524;12.052;2023-04-25T10:13:30;10.40;;;4.13;;
56943;SDS011;42848;42.524;12.052;2023-04-25T10:16:01;8.48;;;3.22;;
56943;SDS011;42848;42.524;12.052;2023-04-25T10:18:28;8.77;;;2.80;;
56943;SDS011;42848;42.524;12.052;2023-04-25T10:20:55;9.90;;;3.45;;
56943;SDS011;42848;42.524;12.052;2023-04-25T10:23:23;10.60;;;3.20;;
56943;SDS011;42848;42.524;12.052;2023-04-25T10:25:51;10.48;;;3.17;;
56943;SDS011;42848;42.524;12.052;2023-04-25T10:28:18;17.33;;;8.27;;
56943;SDS011;42848;42.524;12.052;2023-04-25T10:33:30;9.65;;;3.08;;
56943;SDS011;42848;42.524;12.052;2023-04-25T10:36:21;10.40;;;3.80;;
56943;SDS011;42848;42.524;12.052;2023-04-25T10:38:48;11.95;;;4.25;;
56943;SDS011;42848;42.524;12.052;2023-04-25T10:41:17;8.30;;;2.42;;
56943;SDS011;42848;42.524;12.052;2023-04-25T10:43:44;7.13;;;2.10;;
56943;SDS011;42848;42.524;12.052;2023-04-25T10:46:24;5.72;;;2.17;;
56943;SDS011;42848;42.524;12.052;2023-04-25T10:48:55;7.40;;;2.30;;
56943;SDS011;42848;42.524;12.052;2023-04-25T10:51:24;6.72;;;2.45;;
56943;SDS011;42848;42.524;12.052;2023-04-25T10:56:21;10.52;;;3.10;;
56943;SDS011;42848;42.524;12.052;2023-04-25T10:58:48;7.47;;;2.63;;
56943;SDS011;42848;42.524;12.052;2023-04-25T11:01:21;8.60;;;2.67;;
56943;SDS011;42848;42.524;12.052;2023-04-25T11:03:49;14.52;;;5.43;;
56943;SDS011;42848;42.524;12.052;2023-04-25T11:06:27;10.45;;;5.03;;
56943;SDS011;42848;42.524;12.052;2023-04-25T11:09:02;7.15;;;2.00;;
56943;SDS011;42848;42.524;12.052;2023-04-25T11:11:37;5.63;;;2.10;;
56943;SDS011;42848;42.524;12.052;2023-04-25T11:14:03;5.25;;;1.70;;
56943;SDS011;42848;42.524;12.052;2023-04-25T11:16:28;6.38;;;1.80;;
56943;SDS011;42848;42.524;12.052;2023-04-25T11:18:57;5.47;;;2.00;;
56943;SDS011;42848;42.524;12.052;2023-04-25T11:21:23;7.30;;;2.00;;
56943;SDS011;42848;42.524;12.052;2023-04-25T11:23:51;6.10;;;2.10;;
56943;SDS011;42848;42.524;12.052;2023-04-25T11:26:18;6.13;;;2.03;;
56943;SDS011;42848;42.524;12.052;2023-04-25T11:28:45;6.97;;;2.30;;
56943;SDS011;42848;42.524;12.052;2023-04-25T11:31:12;10.10;;;2.42;;
56943;SDS011;42848;42.524;12.052;2023-04-25T11:33:38;7.43;;;2.55;;
56943;SDS011;42848;42.524;12.052;2023-04-25T11:36:06;7.97;;;2.50;;
56943;SDS011;42848;42.524;12.052;2023-04-25T11:38:32;6.10;;;2.50;;
56943;SDS011;42848;42.524;12.052;2023-04-25T11:40:58;7.00;;;2.70;;
56943;SDS011;42848;42.524;12.052;2023-04-25T11:43:23;7.28;;;2.50;;
56943;SDS011;42848;42.524;12.052;2023-04-25T11:45:51;6.82;;;2.20;;
56943;SDS011;42848;42.524;12.052;2023-04-25T11:48:20;5.32;;;2.13;;
56943;SDS011;42848;42.524;12.052;2023-04-25T11:50:46;7.38;;;2.30;;
56943;SDS011;42848;42.524;12.052;2023-04-25T11:53:12;4.07;;;1.80;;
56943;SDS011;42848;42.524;12.052;2023-04-25T11:55:38;3.85;;;1.70;;
56943;SDS011;42848;42.524;12.052;2023-04-25T11:58:05;4.97;;;2.00;;
56943;SDS011;42848;42.524;12.052;2023-04-25T12:00:31;5.85;;;1.90;;
56943;SDS011;42848;42.524;12.052;2023-04-25T12:02:59;7.43;;;2.00;;
56943;SDS011;42848;42.524;12.052;2023-04-25T12:05:28;5.28;;;2.00;;
56943;SDS011;42848;42.524;12.052;2023-04-25T12:07:55;3.78;;;2.08;;
56943;SDS011;42848;42.524;12.052;2023-04-25T12:10:23;6.35;;;2.15;;
56943;SDS011;42848;42.524;12.052;2023-04-25T12:12:50;4.80;;;1.92;;
56943;SDS011;42848;42.524;12.052;2023-04-25T12:15:23;5.63;;;1.70;;
56943;SDS011;42848;42.524;12.052;2023-04-25T12:17:51;4.43;;;1.80;;
56943;SDS011;42848;42.524;12.052;2023-04-25T12:20:19;6.00;;;1.80;;
56943;SDS011;42848;42.524;12.052;2023-04-25T12:22:51;4.28;;;2.38;;
56943;SDS011;42848;42.524;12.052;2023-04-25T12:25:33;5.13;;;1.67;;
56943;SDS011;42848;42.524;12.052;2023-04-25T12:28:10;5.03;;;1.90;;
56943;SDS011;42848;42.524;12.052;2023-04-25T12:33:22;7.00;;;1.73;;
56943;SDS011;42848;42.524;12.052;2023-04-25T12:35:49;6.60;;;1.45;;
56943;SDS011;42848;42.524;12.052;2023-04-25T12:38:30;5.28;;;1.73;;
56943;SDS011;42848;42.524;12.052;2023-04-25T12:40:59;3.72;;;1.30;;
56943;SDS011;42848;42.524;12.052;2023-04-25T12:43:25;4.72;;;1.40;;
56943;SDS011;42848;42.524;12.052;2023-04-25T12:45:52;3.72;;;1.70;;
56943;SDS011;42848;42.524;12.052;2023-04-25T12:48:19;4.50;;;1.40;;
56943;SDS011;42848;42.524;12.052;2023-04-25T12:50:45;3.53;;;1.40;;
56943;SDS011;42848;42.524;12.052;2023-04-25T12:53:15;3.25;;;1.40;;
56943;SDS011;42848;42.524;12.052;2023-04-25T12:55:47;2.80;;;1.20;;
56943;SDS011;42848;42.524;12.052;2023-04-25T12:58:14;3.92;;;1.30;;
56943;SDS011;42848;42.524;12.052;2023-04-25T13:00:40;3.55;;;1.40;;
56943;SDS011;42848;42.524;12.052;2023-04-25T13:03:06;10.70;;;1.80;;
56943;SDS011;42848;42.524;12.052;2023-04-25T13:05:31;6.60;;;2.40;;
56943;SDS011;42848;42.524;12.052;2023-04-25T13:07:57;4.32;;;1.35;;
56943;SDS011;42848;42.524;12.052;2023-04-25T13:10:23;4.30;;;1.98;;
56943;SDS011;42848;42.524;12.052;2023-04-25T13:12:48;4.30;;;1.48;;
56943;SDS011;42848;42.524;12.052;2023-04-25T13:15:14;3.38;;;1.15;;
56943;SDS011;42848;42.524;12.052;2023-04-25T13:17:41;3.53;;;1.40;;
56943;SDS011;42848;42.524;12.052;2023-04-25T13:20:07;4.22;;;1.40;;
56943;SDS011;42848;42.524;12.052;2023-04-25T13:22:34;4.15;;;1.40;;
56943;SDS011;42848;42.524;12.052;2023-04-25T13:25:02;4.55;;;1.70;;
56943;SDS011;42848;42.524;12.052;2023-04-25T13:27:28;3.50;;;1.30;;
56943;SDS011;42848;42.524;12.052;2023-04-25T13:29:55;2.88;;;1.40;;
56943;SDS011;42848;42.524;12.052;2023-04-25T13:32:21;4.07;;;1.45;;
56943;SDS011;42848;42.524;12.052;2023-04-25T13:34:46;5.40;;;1.42;;
56943;SDS011;42848;42.524;12.052;2023-04-25T13:37:12;3.80;;;1.30;;
56943;SDS011;42848;42.524;12.052;2023-04-25T13:39:39;4.00;;;1.25;;
56943;SDS011;42848;42.524;12.052;2023-04-25T13:42:05;3.38;;;1.20;;
56943;SDS011;42848;42.524;12.052;2023-04-25T13:44:30;4.35;;;1.20;;
56943;SDS011;42848;42.524;12.052;2023-04-25T13:46:56;3.10;;;1.25;;
56943;SDS011;42848;42.524;12.052;2023-04-25T13:49:21;2.67;;;1.10;;
56943;SDS011;42848;42.524;12.052;2023-04-25T13:51:48;3.42;;;1.50;;
56943;SDS011;42848;42.524;12.052;2023-04-25T13:54:13;3.40;;;1.40;;
56943;SDS011;42848;42.524;12.052;2023-04-25T13:56:39;2.92;;;1.48;;
56943;SDS011;42848;42.524;12.052;2023-04-25T13:59:07;5.65;;;2.10;;
56943;SDS011;42848;42.524;12.052;2023-04-25T14:01:32;6.28;;;2.50;;
56943;SDS011;42848;42.524;12.052;2023-04-25T14:04:00;9.50;;;5.47;;
56943;SDS011;42848;42.524;12.052;2023-04-25T14:06:27;6.70;;;3.30;;
56943;SDS011;42848;42.524;12.052;2023-04-25T14:08:53;4.43;;;2.50;;
56943;SDS011;42848;42.524;12.052;2023-04-25T14:11:19;5.50;;;2.25;;
56943;SDS011;42848;42.524;12.052;2023-04-25T14:13:45;3.83;;;1.70;;
56943;SDS011;42848;42.524;12.052;2023-04-25T14:16:11;5.00;;;1.40;;
56943;SDS011;42848;42.524;12.052;2023-04-25T14:18:37;3.42;;;1.42;;
56943;SDS011;42848;42.524;12.052;2023-04-25T14:21:02;3.88;;;1.55;;
56943;SDS011;42848;42.524;12.052;2023-04-25T14:23:28;3.50;;;1.30;;
56943;SDS011;42848;42.524;12.052;2023-04-25T14:25:54;2.80;;;1.23;;
56943;SDS011;42848;42.524;12.052;2023-04-25T14:28:20;4.10;;;1.42;;
56943;SDS011;42848;42.524;12.052;2023-04-25T14:30:45;4.65;;;1.60;;
56943;SDS011;42848;42.524;12.052;2023-04-25T14:33:11;2.58;;;1.23;;
56943;SDS011;42848;42.524;12.052;2023-04-25T14:35:37;4.20;;;1.17;;
56943;SDS011;42848;42.524;12.052;2023-04-25T14:38:03;10.82;;;1.40;;